createdAt,value
2016-05-13T00:00:53.417Z,0
2016-05-13T00:01:53.280Z,0
2016-05-13T00:02:53.141Z,0
2016-05-13T00:03:53.425Z,0
2016-05-13T00:04:53.538Z,0
2016-05-13T00:05:53.509Z,0
2016-05-13T00:06:53.496Z,0
2016-05-13T00:07:53.421Z,0
2016-05-13T00:08:54.017Z,0
2016-05-13T00:09:53.426Z,0
2016-05-13T00:10:53.272Z,0
2016-05-13T00:11:53.416Z,0
2016-05-13T00:12:53.419Z,0
2016-05-13T00:13:53.249Z,0
2016-05-13T00:14:53.112Z,0
2016-05-13T00:15:53.270Z,0
2016-05-13T00:16:53.429Z,0
2016-05-13T00:17:53.931Z,0
2016-05-13T00:18:53.418Z,0
2016-05-13T00:19:53.266Z,0
2016-05-13T00:20:53.424Z,0
2016-05-13T00:21:53.443Z,0
2016-05-13T00:22:53.429Z,0
2016-05-13T00:23:53.432Z,0
2016-05-13T00:24:53.264Z,0
2016-05-13T00:25:53.422Z,0
2016-05-13T00:26:53.128Z,0
2016-05-13T00:27:53.428Z,0
2016-05-13T00:28:53.274Z,0
2016-05-13T00:29:53.433Z,0
2016-05-13T00:30:53.451Z,0
2016-05-13T00:31:53.266Z,0
2016-05-13T00:32:53.567Z,0
2016-05-13T00:33:53.428Z,0
2016-05-13T00:34:53.275Z,0
2016-05-13T00:35:53.433Z,0
2016-05-13T00:36:53.280Z,0
2016-05-13T00:37:53.423Z,0
2016-05-13T00:38:53.285Z,0
2016-05-13T00:39:53.288Z,0
2016-05-13T00:40:53.432Z,0
2016-05-13T00:41:53.294Z,0
2016-05-13T00:42:53.280Z,0
2016-05-13T00:43:53.283Z,0
2016-05-13T00:44:53.442Z,0
2016-05-13T00:45:53.288Z,0
2016-05-13T00:46:53.276Z,0
2016-05-13T00:47:53.747Z,0
2016-05-13T00:48:53.281Z,0
2016-05-13T00:49:53.143Z,0
2016-05-13T00:50:53.426Z,0
2016-05-13T00:51:53.429Z,0
2016-05-13T00:52:53.448Z,0
2016-05-13T00:53:53.450Z,0
2016-05-13T00:54:53.438Z,0
2016-05-13T00:55:53.284Z,0
2016-05-13T00:56:53.428Z,0
2016-05-13T00:57:53.290Z,0
2016-05-13T00:58:53.448Z,0
2016-05-13T00:59:53.279Z,0
2016-05-13T01:00:53.438Z,0
2016-05-13T01:01:53.311Z,0
2016-05-13T01:02:53.935Z,0
2016-05-13T01:03:53.529Z,0
2016-05-13T01:04:53.590Z,0
2016-05-13T01:05:53.621Z,0
2016-05-13T01:06:53.518Z,0
2016-05-13T01:07:53.678Z,0
2016-05-13T01:08:53.541Z,0
2016-05-13T01:09:53.559Z,0
2016-05-13T01:10:53.733Z,0
2016-05-13T01:11:53.577Z,0
2016-05-13T01:12:53.601Z,0
2016-05-13T01:13:53.765Z,0
2016-05-13T01:14:53.758Z,0
2016-05-13T01:15:53.610Z,0
2016-05-13T01:16:53.758Z,0
2016-05-13T01:17:53.809Z,0
2016-05-13T01:18:53.782Z,0
2016-05-13T01:19:53.786Z,0
2016-05-13T01:20:53.776Z,0
2016-05-13T01:21:53.624Z,0
2016-05-13T01:22:53.784Z,0
2016-05-13T01:23:53.506Z,0
2016-05-13T01:24:53.791Z,0
2016-05-13T01:25:53.639Z,0
2016-05-13T01:26:53.484Z,0
2016-05-13T01:27:53.801Z,0
2016-05-13T01:28:53.804Z,0
2016-05-13T01:29:53.634Z,0
2016-05-13T01:30:53.779Z,0
2016-05-13T01:31:53.625Z,0
2016-05-13T01:32:53.784Z,0
2016-05-13T01:33:53.787Z,0
2016-05-13T01:34:53.789Z,0
2016-05-13T01:35:53.792Z,0
2016-05-13T01:36:53.796Z,0
2016-05-13T01:37:53.798Z,0
2016-05-13T01:38:53.629Z,0
2016-05-13T01:39:53.803Z,0
2016-05-13T01:40:53.649Z,0
2016-05-13T01:41:53.793Z,0
2016-05-13T01:42:53.639Z,0
2016-05-13T01:43:53.798Z,0
2016-05-13T01:44:53.785Z,0
2016-05-13T01:45:53.803Z,0
2016-05-13T01:46:53.790Z,0
2016-05-13T01:47:54.075Z,0
2016-05-13T01:48:53.796Z,0
2016-05-13T01:49:53.643Z,0
2016-05-13T01:50:53.661Z,0
2016-05-13T01:51:53.648Z,0
2016-05-13T01:52:53.806Z,0
2016-05-13T01:53:53.637Z,0
2016-05-13T01:54:53.796Z,0
2016-05-13T01:55:53.799Z,0
2016-05-13T01:56:53.802Z,0
2016-05-13T01:57:53.648Z,0
2016-05-13T01:58:53.792Z,0
2016-05-13T01:59:53.794Z,0
2016-05-13T02:00:53.641Z,0
2016-05-13T02:01:53.627Z,0
2016-05-13T02:02:53.646Z,0
2016-05-13T02:03:53.805Z,0
2016-05-13T02:04:53.808Z,0
2016-05-13T02:05:53.638Z,0
2016-05-13T02:06:53.797Z,0
2016-05-13T02:07:53.799Z,0
2016-05-13T02:08:53.803Z,0
2016-05-13T02:09:53.805Z,0
2016-05-13T02:10:53.652Z,0
2016-05-13T02:11:53.796Z,0
2016-05-13T02:12:53.798Z,0
2016-05-13T02:13:53.644Z,0
2016-05-13T02:14:53.662Z,0
2016-05-13T02:15:53.791Z,0
2016-05-13T02:16:53.653Z,0
2016-05-13T02:17:54.171Z,0
2016-05-13T02:18:53.798Z,0
2016-05-13T02:19:53.800Z,0
2016-05-13T02:20:53.803Z,0
2016-05-13T02:21:53.791Z,0
2016-05-13T02:22:53.809Z,0
2016-05-13T02:23:53.828Z,0
2016-05-13T02:24:53.502Z,0
2016-05-13T02:25:53.802Z,0
2016-05-13T02:26:53.805Z,0
2016-05-13T02:27:53.807Z,0
2016-05-13T02:28:53.810Z,0
2016-05-13T02:29:53.813Z,0
2016-05-13T02:30:53.800Z,0
2016-05-13T02:31:53.818Z,0
2016-05-13T02:32:54.117Z,0
2016-05-13T02:33:53.823Z,0
2016-05-13T02:34:53.810Z,0
2016-05-13T02:35:53.796Z,0
2016-05-13T02:36:53.815Z,0
2016-05-13T02:37:53.663Z,0
2016-05-13T02:38:53.805Z,0
2016-05-13T02:39:53.808Z,0
2016-05-13T02:40:53.810Z,0
2016-05-13T02:41:53.813Z,0
2016-05-13T02:42:53.816Z,0
2016-05-13T02:43:53.818Z,0
2016-05-13T02:44:53.821Z,0
2016-05-13T02:45:53.809Z,0
2016-05-13T02:46:53.811Z,0
2016-05-13T02:47:53.798Z,0
2016-05-13T02:48:53.660Z,0
2016-05-13T02:49:53.835Z,0
2016-05-13T02:50:53.823Z,0
2016-05-13T02:51:53.809Z,0
2016-05-13T02:52:53.655Z,0
2016-05-13T02:53:53.642Z,0
2016-05-13T02:54:53.661Z,0
2016-05-13T02:55:53.678Z,0
2016-05-13T02:56:53.807Z,0
2016-05-13T02:57:53.513Z,0
2016-05-13T02:58:53.672Z,0
2016-05-13T02:59:53.830Z,0
2016-05-13T03:00:53.661Z,0
2016-05-13T03:01:53.836Z,0
2016-05-13T03:02:53.838Z,0
2016-05-13T03:03:53.654Z,0
2016-05-13T03:04:53.844Z,0
2016-05-13T03:05:53.816Z,0
2016-05-13T03:06:53.646Z,0
2016-05-13T03:07:53.821Z,0
2016-05-13T03:08:53.652Z,0
2016-05-13T03:09:53.811Z,0
2016-05-13T03:10:53.673Z,0
2016-05-13T03:11:53.816Z,0
2016-05-13T03:12:53.646Z,0
2016-05-13T03:13:53.821Z,0
2016-05-13T03:14:53.824Z,0
2016-05-13T03:15:53.811Z,0
2016-05-13T03:16:53.814Z,0
2016-05-13T03:17:54.488Z,0
2016-05-13T03:18:53.819Z,0
2016-05-13T03:19:53.837Z,0
2016-05-13T03:20:53.839Z,0
2016-05-13T03:21:53.827Z,0
2016-05-13T03:22:53.831Z,0
2016-05-13T03:23:53.661Z,0
2016-05-13T03:24:53.820Z,0
2016-05-13T03:25:53.822Z,0
2016-05-13T03:26:53.825Z,0
2016-05-13T03:27:53.672Z,0
2016-05-13T03:28:53.658Z,0
2016-05-13T03:29:53.833Z,0
2016-05-13T03:30:53.820Z,0
2016-05-13T03:31:53.822Z,0
2016-05-13T03:32:54.185Z,0
2016-05-13T03:33:53.672Z,0
2016-05-13T03:34:53.831Z,0
2016-05-13T03:35:53.834Z,0
2016-05-13T03:36:53.649Z,0
2016-05-13T03:37:53.699Z,4
2016-05-13T03:38:53.685Z,4
2016-05-13T03:39:53.813Z,4
2016-05-13T03:40:53.815Z,4
2016-05-13T03:41:53.819Z,4
2016-05-13T03:42:53.680Z,4
2016-05-13T03:43:53.668Z,4
2016-05-13T03:44:53.827Z,4
2016-05-13T03:45:53.829Z,4
2016-05-13T03:46:53.676Z,4
2016-05-13T03:47:54.163Z,8
2016-05-13T03:48:53.837Z,8
2016-05-13T03:49:53.824Z,8
2016-05-13T03:50:53.827Z,8
2016-05-13T03:51:53.829Z,8
2016-05-13T03:52:53.832Z,8
2016-05-13T03:53:53.679Z,12
2016-05-13T03:54:53.667Z,12
2016-05-13T03:55:53.684Z,12
2016-05-13T03:56:53.828Z,12
2016-05-13T03:57:53.830Z,12
2016-05-13T03:58:53.677Z,16
2016-05-13T03:59:53.836Z,16
2016-05-13T04:00:53.682Z,16
2016-05-13T04:01:53.842Z,16
2016-05-13T04:02:53.531Z,20
2016-05-13T04:03:53.831Z,24
2016-05-13T04:04:53.693Z,20
2016-05-13T04:05:53.836Z,20
2016-05-13T04:06:53.838Z,24
2016-05-13T04:07:53.842Z,28
2016-05-13T04:08:53.844Z,28
2016-05-13T04:09:53.847Z,32
2016-05-13T04:10:53.521Z,32
2016-05-13T04:11:53.821Z,36
2016-05-13T04:12:53.511Z,32
2016-05-13T04:13:53.827Z,40
2016-05-13T04:14:53.845Z,40
2016-05-13T04:15:53.848Z,40
2016-05-13T04:16:53.678Z,40
2016-05-13T04:17:54.009Z,40
2016-05-13T04:18:53.684Z,44
2016-05-13T04:19:53.843Z,48
2016-05-13T04:20:53.846Z,52
2016-05-13T04:21:53.864Z,56
2016-05-13T04:22:53.835Z,56
2016-05-13T04:23:53.665Z,56
2016-05-13T04:24:53.840Z,52
2016-05-13T04:25:53.842Z,56
2016-05-13T04:26:53.831Z,60
2016-05-13T04:27:53.833Z,60
2016-05-13T04:28:53.679Z,64
2016-05-13T04:29:53.839Z,64
2016-05-13T04:30:53.841Z,64
2016-05-13T04:31:53.844Z,68
2016-05-13T04:32:54.080Z,76
2016-05-13T04:33:53.833Z,76
2016-05-13T04:34:53.836Z,72
2016-05-13T04:35:53.683Z,84
2016-05-13T04:36:53.544Z,80
2016-05-13T04:37:53.688Z,88
2016-05-13T04:38:53.847Z,96
2016-05-13T04:39:53.850Z,92
2016-05-13T04:40:53.540Z,92
2016-05-13T04:41:53.839Z,96
2016-05-13T04:42:53.529Z,104
2016-05-13T04:43:53.829Z,104
2016-05-13T04:44:53.831Z,108
2016-05-13T04:45:53.850Z,132
2016-05-13T04:46:53.853Z,136
2016-05-13T04:47:53.840Z,132
2016-05-13T04:48:53.842Z,148
2016-05-13T04:49:53.845Z,160
2016-05-13T04:50:53.831Z,160
2016-05-13T04:51:53.834Z,172
2016-05-13T04:52:53.682Z,180
2016-05-13T04:53:53.840Z,184
2016-05-13T04:54:53.842Z,192
2016-05-13T04:55:53.861Z,184
2016-05-13T04:56:53.848Z,192
2016-05-13T04:57:53.836Z,196
2016-05-13T04:58:53.682Z,192
2016-05-13T04:59:53.856Z,212
2016-05-13T05:00:53.844Z,216
2016-05-13T05:01:53.830Z,220
2016-05-13T05:02:53.880Z,232
2016-05-13T05:03:53.727Z,236
2016-05-13T05:04:53.386Z,232
2016-05-13T05:05:53.686Z,256
2016-05-13T05:06:53.688Z,244
2016-05-13T05:07:53.847Z,244
2016-05-13T05:08:53.693Z,236
2016-05-13T05:09:53.852Z,240
2016-05-13T05:10:53.854Z,264
2016-05-13T05:11:53.858Z,280
2016-05-13T05:12:53.860Z,296
2016-05-13T05:13:53.847Z,292
2016-05-13T05:14:53.835Z,320
2016-05-13T05:15:53.837Z,340
2016-05-13T05:16:53.840Z,344
2016-05-13T05:17:54.107Z,356
2016-05-13T05:18:53.845Z,352
2016-05-13T05:19:53.863Z,392
2016-05-13T05:20:53.710Z,404
2016-05-13T05:21:53.712Z,408
2016-05-13T05:22:53.840Z,412
2016-05-13T05:23:53.842Z,408
2016-05-13T05:24:53.909Z,420
2016-05-13T05:25:53.848Z,452
2016-05-13T05:26:53.851Z,456
2016-05-13T05:27:53.853Z,448
2016-05-13T05:28:53.856Z,420
2016-05-13T05:29:53.702Z,396
2016-05-13T05:30:53.845Z,400
2016-05-13T05:31:53.709Z,384
2016-05-13T05:32:53.930Z,360
2016-05-13T05:33:53.854Z,376
2016-05-13T05:34:53.856Z,356
2016-05-13T05:35:53.859Z,352
2016-05-13T05:36:53.862Z,356
2016-05-13T05:37:53.864Z,360
2016-05-13T05:38:53.852Z,360
2016-05-13T05:39:53.870Z,384
2016-05-13T05:40:53.702Z,384
2016-05-13T05:41:53.704Z,376
2016-05-13T05:42:53.707Z,364
2016-05-13T05:43:53.880Z,368
2016-05-13T05:44:53.712Z,384
2016-05-13T05:45:53.854Z,380
2016-05-13T05:46:53.873Z,352
2016-05-13T05:47:54.096Z,380
2016-05-13T05:48:53.848Z,392
2016-05-13T05:49:53.851Z,420
2016-05-13T05:50:53.853Z,396
2016-05-13T05:51:53.856Z,388
2016-05-13T05:52:53.702Z,392
2016-05-13T05:53:53.876Z,424
2016-05-13T05:54:53.864Z,460
2016-05-13T05:55:53.866Z,480
2016-05-13T05:56:53.870Z,512
2016-05-13T05:57:53.856Z,512
2016-05-13T05:58:53.859Z,544
2016-05-13T05:59:53.706Z,572
2016-05-13T06:00:53.864Z,600
2016-05-13T06:01:53.867Z,648
2016-05-13T06:02:54.025Z,704
2016-05-13T06:03:53.544Z,680
2016-05-13T06:04:53.859Z,668
2016-05-13T06:05:53.847Z,748
2016-05-13T06:06:53.864Z,780
2016-05-13T06:07:53.555Z,696
2016-05-13T06:08:53.870Z,724
2016-05-13T06:09:53.717Z,700
2016-05-13T06:10:53.875Z,712
2016-05-13T06:11:53.862Z,776
2016-05-13T06:12:53.865Z,800
2016-05-13T06:13:53.868Z,820
2016-05-13T06:14:53.855Z,888
2016-05-13T06:15:53.857Z,964
2016-05-13T06:16:53.657Z,844
2016-05-13T06:17:53.644Z,896
2016-05-13T06:18:53.882Z,988
2016-05-13T06:19:53.869Z,988
2016-05-13T06:20:53.715Z,924
2016-05-13T06:21:53.718Z,932
2016-05-13T06:22:53.861Z,980
2016-05-13T06:23:53.863Z,1032
2016-05-13T06:24:53.882Z,968
2016-05-13T06:25:53.868Z,1032
2016-05-13T06:26:53.856Z,928
2016-05-13T06:27:53.859Z,948
2016-05-13T06:28:53.877Z,984
2016-05-13T06:29:53.708Z,1040
2016-05-13T06:30:53.867Z,1052
2016-05-13T06:31:53.713Z,1132
2016-05-13T06:32:53.857Z,1124
2016-05-13T06:33:53.875Z,1132
2016-05-13T06:34:53.721Z,996
2016-05-13T06:35:53.880Z,920
2016-05-13T06:36:53.867Z,936
2016-05-13T06:37:53.869Z,908
2016-05-13T06:38:53.873Z,920
2016-05-13T06:39:53.875Z,908
2016-05-13T06:40:53.721Z,812
2016-05-13T06:41:53.865Z,720
2016-05-13T06:42:53.728Z,720
2016-05-13T06:43:53.729Z,724
2016-05-13T06:44:53.888Z,692
2016-05-13T06:45:53.641Z,628
2016-05-13T06:46:53.582Z,748
2016-05-13T06:47:53.569Z,800
2016-05-13T06:48:53.743Z,856
2016-05-13T06:49:53.558Z,896
2016-05-13T06:50:53.420Z,904
2016-05-13T06:51:53.626Z,904
2016-05-13T06:52:53.395Z,896
2016-05-13T06:53:53.756Z,888
2016-05-13T06:54:53.712Z,844
2016-05-13T06:55:53.715Z,960
2016-05-13T06:56:53.562Z,1036
2016-05-13T06:57:53.721Z,1124
2016-05-13T06:58:53.723Z,1068
2016-05-13T06:59:53.741Z,1036
2016-05-13T07:00:53.713Z,1048
2016-05-13T07:01:53.404Z,1144
2016-05-13T07:02:53.734Z,1104
2016-05-13T07:03:53.721Z,1116
2016-05-13T07:04:53.723Z,1140
2016-05-13T07:05:53.742Z,1100
2016-05-13T07:06:53.573Z,1112
2016-05-13T07:07:53.731Z,1164
2016-05-13T07:08:53.750Z,1196
2016-05-13T07:09:53.736Z,1264
2016-05-13T07:10:53.444Z,1344
2016-05-13T07:11:53.571Z,1284
2016-05-13T07:12:53.729Z,1352
2016-05-13T07:13:53.577Z,1400
2016-05-13T07:14:53.735Z,1480
2016-05-13T07:15:53.566Z,1556
2016-05-13T07:16:53.569Z,1652
2016-05-13T07:17:53.727Z,1564
2016-05-13T07:18:53.573Z,1608
2016-05-13T07:19:53.733Z,1648
2016-05-13T07:20:53.720Z,1672
2016-05-13T07:21:53.738Z,1712
2016-05-13T07:22:53.726Z,1564
2016-05-13T07:23:53.588Z,1516
2016-05-13T07:24:53.590Z,1584
2016-05-13T07:25:53.748Z,1504
2016-05-13T07:26:53.737Z,1512
2016-05-13T07:27:53.723Z,1616
2016-05-13T07:28:53.742Z,1756
2016-05-13T07:29:53.760Z,1660
2016-05-13T07:30:53.590Z,1744
2016-05-13T07:31:53.578Z,1696
2016-05-13T07:32:53.831Z,1564
2016-05-13T07:33:53.739Z,1596
2016-05-13T07:34:53.773Z,1512
2016-05-13T07:35:53.744Z,1520
2016-05-13T07:36:53.731Z,1472
2016-05-13T07:37:53.734Z,1400
2016-05-13T07:38:53.753Z,1408
2016-05-13T07:39:53.739Z,1400
2016-05-13T07:40:53.727Z,1320
2016-05-13T07:41:53.745Z,1332
2016-05-13T07:42:53.764Z,1416
2016-05-13T07:43:53.736Z,1412
2016-05-13T07:44:53.581Z,1612
2016-05-13T07:45:53.427Z,1588
2016-05-13T07:46:53.586Z,1632
2016-05-13T07:47:53.714Z,1636
2016-05-13T07:48:53.592Z,1616
2016-05-13T07:49:53.736Z,1592
2016-05-13T07:50:53.754Z,1672
2016-05-13T07:51:53.757Z,1724
2016-05-13T07:52:53.603Z,1860
2016-05-13T07:53:53.762Z,2028
2016-05-13T07:54:53.624Z,2132
2016-05-13T07:55:53.767Z,2120
2016-05-13T07:56:53.848Z,2116
2016-05-13T07:57:53.773Z,2172
2016-05-13T07:58:53.760Z,2084
2016-05-13T07:59:53.778Z,2156
2016-05-13T08:00:53.937Z,2176
2016-05-13T08:01:53.752Z,2072
2016-05-13T08:02:53.833Z,2132
2016-05-13T08:03:53.757Z,2192
2016-05-13T08:04:53.931Z,2216
2016-05-13T08:05:53.873Z,2444
2016-05-13T08:06:53.765Z,2244
2016-05-13T08:07:53.753Z,2200
2016-05-13T08:08:53.756Z,2604
2016-05-13T08:09:53.603Z,2440
2016-05-13T08:10:53.605Z,2656
2016-05-13T08:11:53.763Z,2652
2016-05-13T08:12:53.766Z,2596
2016-05-13T08:13:53.597Z,2456
2016-05-13T08:14:53.756Z,2420
2016-05-13T08:15:53.775Z,2344
2016-05-13T08:16:53.761Z,2536
2016-05-13T08:17:54.858Z,2492
2016-05-13T08:18:53.611Z,2492
2016-05-13T08:19:53.769Z,2396
2016-05-13T08:20:53.772Z,2336
2016-05-13T08:21:53.759Z,2604
2016-05-13T08:22:53.778Z,2588
2016-05-13T08:23:53.608Z,2616
2016-05-13T08:24:53.767Z,2716
2016-05-13T08:25:53.786Z,2752
2016-05-13T08:26:53.788Z,2568
2016-05-13T08:27:53.776Z,2452
2016-05-13T08:28:53.762Z,2356
2016-05-13T08:29:53.781Z,2620
2016-05-13T08:30:53.768Z,2568
2016-05-13T08:31:53.770Z,2428
2016-05-13T08:32:54.070Z,2344
2016-05-13T08:33:53.792Z,2548
2016-05-13T08:34:53.762Z,2608
2016-05-13T08:35:53.781Z,2640
2016-05-13T08:36:53.784Z,2432
2016-05-13T08:37:53.787Z,2660
2016-05-13T08:38:53.790Z,2628
2016-05-13T08:39:53.573Z,2472
2016-05-13T08:40:53.623Z,2276
2016-05-13T08:41:53.781Z,2224
2016-05-13T08:42:53.784Z,2396
2016-05-13T08:43:53.787Z,2284
2016-05-13T08:44:53.789Z,2112
2016-05-13T08:45:53.792Z,2260
2016-05-13T08:46:53.780Z,2228
2016-05-13T08:47:54.251Z,2132
2016-05-13T08:48:53.644Z,2068
2016-05-13T08:49:53.788Z,2076
2016-05-13T08:50:53.821Z,2224
2016-05-13T08:51:53.496Z,2372
2016-05-13T08:52:53.811Z,2396
2016-05-13T08:53:53.658Z,2508
2016-05-13T08:54:53.660Z,2628
2016-05-13T08:55:53.788Z,2660
2016-05-13T08:56:53.807Z,2616
2016-05-13T08:57:53.809Z,2776
2016-05-13T08:58:53.796Z,2784
2016-05-13T08:59:53.799Z,2712
2016-05-13T09:00:53.646Z,2772
2016-05-13T09:01:53.804Z,2916
2016-05-13T09:02:53.995Z,2892
2016-05-13T09:03:53.684Z,2784
2016-05-13T09:04:53.812Z,2844
2016-05-13T09:05:53.674Z,2776
2016-05-13T09:06:53.661Z,2968
2016-05-13T09:07:53.820Z,2888
2016-05-13T09:08:53.823Z,2900
2016-05-13T09:09:53.826Z,2864
2016-05-13T09:10:53.812Z,2784
2016-05-13T09:11:53.815Z,2812
2016-05-13T09:12:53.662Z,2760
2016-05-13T09:13:53.665Z,2808
2016-05-13T09:14:53.823Z,3084
2016-05-13T09:15:53.826Z,3492
2016-05-13T09:16:53.703Z,3580
2016-05-13T09:17:54.035Z,3604
2016-05-13T09:18:53.834Z,3584
2016-05-13T09:19:53.822Z,3372
2016-05-13T09:20:53.839Z,3188
2016-05-13T09:21:53.827Z,2948
2016-05-13T09:22:53.830Z,3256
2016-05-13T09:23:53.676Z,3480
2016-05-13T09:24:53.835Z,3256
2016-05-13T09:25:53.838Z,3556
2016-05-13T09:26:53.825Z,3416
2016-05-13T09:27:53.843Z,3060
2016-05-13T09:28:53.846Z,3188
2016-05-13T09:29:53.863Z,3240
2016-05-13T09:30:53.710Z,3052
2016-05-13T09:31:53.838Z,3032
2016-05-13T09:32:54.497Z,3056
2016-05-13T09:33:53.859Z,3228
2016-05-13T09:34:53.846Z,3388
2016-05-13T09:35:53.834Z,3412
2016-05-13T09:36:53.851Z,3400
2016-05-13T09:37:53.839Z,3628
2016-05-13T09:38:53.856Z,3588
2016-05-13T09:39:53.860Z,3744
2016-05-13T09:40:53.878Z,3856
2016-05-13T09:41:53.693Z,3804
2016-05-13T09:42:54.305Z,4064
2016-05-13T09:43:53.839Z,4168
2016-05-13T09:44:53.858Z,4012
2016-05-13T09:45:53.719Z,4328
2016-05-13T09:46:53.925Z,4520
2016-05-13T09:48:17.444Z,4548
2016-05-13T09:48:57.961Z,4744
2016-05-13T09:49:53.886Z,4828
2016-05-13T09:50:53.874Z,4656
2016-05-13T09:51:53.876Z,4792
2016-05-13T09:52:53.879Z,4800
2016-05-13T09:53:53.725Z,4780
2016-05-13T09:54:53.868Z,4548
2016-05-13T09:55:53.730Z,4944
2016-05-13T09:56:53.874Z,4944
2016-05-13T09:57:53.876Z,4776
2016-05-13T09:58:53.724Z,4724
2016-05-13T09:59:53.726Z,4904
2016-05-13T10:00:53.885Z,4920
2016-05-13T10:01:53.887Z,4948
2016-05-13T10:02:53.890Z,5032
2016-05-13T10:03:53.893Z,4864
2016-05-13T10:04:53.879Z,4644
2016-05-13T10:05:53.898Z,4612
2016-05-13T10:06:53.917Z,4328
2016-05-13T10:07:53.922Z,4292
2016-05-13T10:08:53.952Z,4484
2016-05-13T10:09:53.997Z,4580
2016-05-13T10:10:53.887Z,4176
2016-05-13T10:11:53.776Z,4200
2016-05-13T10:12:53.982Z,4132
2016-05-13T10:13:54.125Z,4068
2016-05-13T10:14:54.002Z,4016
2016-05-13T10:15:54.175Z,3860
2016-05-13T10:16:54.194Z,3652
2016-05-13T10:17:54.067Z,3896
2016-05-13T10:18:54.215Z,3768
2016-05-13T10:19:54.223Z,3932
2016-05-13T10:20:54.263Z,4076
2016-05-13T10:21:54.271Z,3864
2016-05-13T10:22:54.246Z,3632
2016-05-13T10:23:54.110Z,3448
2016-05-13T10:24:54.240Z,3156
2016-05-13T10:25:54.088Z,3136
2016-05-13T10:26:54.250Z,2848
2016-05-13T10:27:54.284Z,2768
2016-05-13T10:28:54.257Z,2740
2016-05-13T10:29:54.119Z,2748
2016-05-13T10:30:54.263Z,2764
2016-05-13T10:31:54.110Z,2552
2016-05-13T10:32:54.146Z,2544
2016-05-13T10:33:56.257Z,2556
2016-05-13T10:34:54.119Z,2640
2016-05-13T10:35:53.967Z,2588
2016-05-13T10:36:54.158Z,2460
2016-05-13T10:37:54.285Z,2320
2016-05-13T10:38:54.288Z,2268
2016-05-13T10:39:54.275Z,2180
2016-05-13T10:40:54.294Z,2104
2016-05-13T10:41:54.280Z,2044
2016-05-13T10:42:54.283Z,2056
2016-05-13T10:43:54.302Z,2036
2016-05-13T10:44:54.132Z,2068
2016-05-13T10:45:54.150Z,2128
2016-05-13T10:46:54.309Z,2212
2016-05-13T10:47:54.890Z,2224
2016-05-13T10:48:55.346Z,2052
2016-05-13T10:49:54.302Z,1964
2016-05-13T10:50:54.305Z,1896
2016-05-13T10:51:54.167Z,1856
2016-05-13T10:52:54.294Z,1984
2016-05-13T10:53:54.296Z,2040
2016-05-13T10:54:54.159Z,2148
2016-05-13T10:55:54.177Z,2124
2016-05-13T10:56:54.336Z,2032
2016-05-13T10:57:54.168Z,2036
2016-05-13T10:58:54.170Z,2184
2016-05-13T10:59:54.312Z,2156
2016-05-13T11:00:54.175Z,2260
2016-05-13T11:01:54.318Z,2292
2016-05-13T11:02:54.493Z,2300
2016-05-13T11:03:54.558Z,2472
2016-05-13T11:04:54.326Z,2676
2016-05-13T11:05:54.376Z,2960
2016-05-13T11:06:54.347Z,3116
2016-05-13T11:07:54.178Z,3020
2016-05-13T11:08:54.181Z,2976
2016-05-13T11:09:54.340Z,3016
2016-05-13T11:10:54.202Z,3068
2016-05-13T11:11:54.330Z,3108
2016-05-13T11:12:54.333Z,3024
2016-05-13T11:13:54.335Z,3112
2016-05-13T11:14:54.353Z,3124
2016-05-13T11:15:54.355Z,3068
2016-05-13T11:16:54.343Z,3148
2016-05-13T11:17:55.736Z,3216
2016-05-13T11:18:54.927Z,3404
2016-05-13T11:19:54.351Z,3592
2016-05-13T11:20:54.198Z,3532
2016-05-13T11:21:54.201Z,3636
2016-05-13T11:22:54.360Z,3644
2016-05-13T11:23:54.940Z,3728
2016-05-13T11:24:54.349Z,3728
2016-05-13T11:25:54.368Z,3812
2016-05-13T11:26:56.495Z,3752
2016-05-13T11:27:54.217Z,3736
2016-05-13T11:28:54.360Z,3816
2016-05-13T11:29:54.362Z,4004
2016-05-13T11:30:54.365Z,4116
2016-05-13T11:31:54.368Z,4196
2016-05-13T11:32:54.792Z,4296
2016-05-13T11:33:54.358Z,4448
2016-05-13T11:34:54.376Z,4564
2016-05-13T11:35:54.378Z,4484
2016-05-13T11:36:54.225Z,4420
2016-05-13T11:37:54.384Z,4364
2016-05-13T11:38:54.387Z,4084
2016-05-13T11:39:54.374Z,3888
2016-05-13T11:40:54.236Z,3664
2016-05-13T11:41:54.394Z,3556
2016-05-13T11:42:54.069Z,3364
2016-05-13T11:43:54.385Z,3428
2016-05-13T11:44:54.387Z,3728
2016-05-13T11:45:54.390Z,4088
2016-05-13T11:46:54.408Z,4624
2016-05-13T11:47:54.333Z,4708
2016-05-13T11:48:54.242Z,4440
2016-05-13T11:49:54.402Z,3744
2016-05-13T11:50:54.404Z,3536
2016-05-13T11:51:54.390Z,3356
2016-05-13T11:52:54.424Z,3204
2016-05-13T11:53:54.412Z,3132
2016-05-13T11:54:54.399Z,3128
2016-05-13T11:55:54.417Z,3312
2016-05-13T11:56:54.263Z,3216
2016-05-13T11:57:54.423Z,2936
2016-05-13T11:58:54.409Z,2760
2016-05-13T11:59:54.428Z,2636
2016-05-13T12:00:54.414Z,2344
2016-05-13T12:01:54.434Z,2120
2016-05-13T12:02:54.467Z,1952
2016-05-13T12:03:54.267Z,1976
2016-05-13T12:04:54.270Z,2028
2016-05-13T12:05:54.428Z,1996
2016-05-13T12:06:54.431Z,2084
2016-05-13T12:07:54.278Z,2212
2016-05-13T12:08:54.280Z,2224
2016-05-13T12:09:54.423Z,2228
2016-05-13T12:10:54.270Z,2368
2016-05-13T12:11:54.288Z,2484
2016-05-13T12:12:54.291Z,2636
2016-05-13T12:13:54.465Z,2716
2016-05-13T12:14:54.280Z,2656
2016-05-13T12:15:54.127Z,2716
2016-05-13T12:16:54.302Z,2872
2016-05-13T12:17:54.694Z,3104
2016-05-13T12:18:54.291Z,3188
2016-05-13T12:19:54.450Z,3088
2016-05-13T12:20:54.453Z,2904
2016-05-13T12:21:54.455Z,2828
2016-05-13T12:22:54.302Z,2832
2016-05-13T12:23:54.320Z,2804
2016-05-13T12:24:54.464Z,2944
2016-05-13T12:25:54.310Z,3040
2016-05-13T12:26:54.469Z,3168
2016-05-13T12:27:54.300Z,3128
2016-05-13T12:28:54.318Z,3044
2016-05-13T12:29:54.352Z,2948
2016-05-13T12:30:54.496Z,2848
2016-05-13T12:31:54.326Z,2792
2016-05-13T12:32:54.704Z,2844
2016-05-13T12:33:54.332Z,2948
2016-05-13T12:34:54.490Z,3080
2016-05-13T12:35:54.478Z,3232
2016-05-13T12:36:54.324Z,3244
2016-05-13T12:37:54.514Z,3200
2016-05-13T12:38:54.752Z,3092
2016-05-13T12:39:54.489Z,2980
2016-05-13T12:40:54.491Z,2940
2016-05-13T12:41:54.479Z,2732
2016-05-13T12:42:54.481Z,2408
2016-05-13T12:43:54.484Z,2232
2016-05-13T12:44:54.518Z,2300
2016-05-13T12:45:54.505Z,2312
2016-05-13T12:46:54.492Z,2308
2016-05-13T12:47:54.775Z,2312
2016-05-13T12:48:54.497Z,2356
2016-05-13T12:49:54.500Z,2496
2016-05-13T12:50:54.361Z,2648
2016-05-13T12:51:54.521Z,2720
2016-05-13T12:52:54.524Z,2644
2016-05-13T12:53:54.526Z,2524
2016-05-13T12:54:54.372Z,2484
2016-05-13T12:55:54.499Z,2524
2016-05-13T12:56:54.534Z,2636
2016-05-13T12:57:54.521Z,2740
2016-05-13T12:58:54.368Z,2728
2016-05-13T12:59:54.526Z,2668
2016-05-13T13:00:54.513Z,2624
2016-05-13T13:01:54.516Z,2532
2016-05-13T13:02:54.394Z,2544
2016-05-13T13:03:54.381Z,2548
2016-05-13T13:04:54.540Z,2464
2016-05-13T13:05:54.387Z,2408
2016-05-13T13:06:54.374Z,2420
2016-05-13T13:07:54.532Z,2544
2016-05-13T13:08:54.379Z,2696
2016-05-13T13:09:54.538Z,2780
2016-05-13T13:10:54.384Z,2896
2016-05-13T13:11:54.387Z,3040
2016-05-13T13:12:54.545Z,3128
2016-05-13T13:13:54.392Z,3172
2016-05-13T13:14:54.551Z,3156
2016-05-13T13:15:54.414Z,3068
2016-05-13T13:16:54.556Z,2968
2016-05-13T13:17:54.622Z,2892
2016-05-13T13:18:54.421Z,2840
2016-05-13T13:19:54.549Z,2724
2016-05-13T13:20:54.553Z,2628
2016-05-13T13:21:54.555Z,2508
2016-05-13T13:22:54.557Z,2488
2016-05-13T13:23:54.560Z,2488
2016-05-13T13:24:54.562Z,2572
2016-05-13T13:25:54.581Z,2680
2016-05-13T13:26:54.569Z,2788
2016-05-13T13:27:54.274Z,2852
2016-05-13T13:28:54.604Z,2864
2016-05-13T13:29:54.561Z,2900
2016-05-13T13:30:54.579Z,2908
2016-05-13T13:31:54.581Z,2896
2016-05-13T13:32:55.257Z,2888
2016-05-13T13:33:54.587Z,2940
2016-05-13T13:34:54.434Z,3048
2016-05-13T13:35:54.451Z,3160
2016-05-13T13:36:54.595Z,3228
2016-05-13T13:37:54.301Z,3164
2016-05-13T13:38:54.616Z,3304
2016-05-13T13:39:54.603Z,3516
2016-05-13T13:40:54.621Z,3648
2016-05-13T13:41:54.609Z,3692
2016-05-13T13:42:54.595Z,3764
2016-05-13T13:43:54.645Z,3940
2016-05-13T13:44:54.617Z,4040
2016-05-13T13:45:54.651Z,3832
2016-05-13T13:46:54.622Z,3944
2016-05-13T13:47:54.468Z,4108
2016-05-13T13:48:54.471Z,4200
2016-05-13T13:49:54.615Z,4244